RJCO(METAR)
07/27 18:00
METAR RJCO 270900Z 31007KT 9999 FEW030 BKN070 25/23 Q1004 RMK 1CU030
6AC070 A2967=
戻る
トップページへ戻る
IMOC Co,.Ltd.